Time;durP1;ratioP1;P1;durP2;ratioP2;P2;SDS_P1;SDS_P2;PMS_P1;PMS_P2;Temp;Humidity;BMP_temperature;BMP_pressure;BME280_temperature;BME280_humidity;BME280_pressure;Samples;Min_cycle;Max_cycle;Signal;HPM_P1;HPM_P2
2021/12/04 00:01:30;;;;;;;14.20;11.85;;;4.30;99.90;;;;;;5012857;23;20015;-78
2021/12/04 00:03:30;;;;;;;14.93;11.07;;;4.30;99.90;;;;;;5015476;23;20019;-78
2021/12/04 00:05:31;;;;;;;15.68;11.48;;;4.40;99.90;;;;;;5014393;23;20046;-77
2021/12/04 00:07:34;;;;;;;17.35;12.23;;;4.40;99.90;;;;;;5013411;23;20015;-77
2021/12/04 00:09:36;;;;;;;14.35;11.13;;;4.40;99.90;;;;;;5012742;23;20011;-77
2021/12/04 00:11:40;;;;;;;16.50;12.48;;;4.30;99.90;;;;;;5015071;23;20018;-77
2021/12/04 00:13:40;;;;;;;15.90;11.95;;;4.30;99.90;;;;;;5014428;23;20030;-77
2021/12/04 00:15:41;;;;;;;17.85;12.50;;;4.30;99.90;;;;;;5014879;23;20438;-77
2021/12/04 00:17:42;;;;;;;18.85;13.02;;;4.30;99.90;;;;;;5014740;23;20122;-77
2021/12/04 00:19:42;;;;;;;19.42;14.60;;;4.30;99.90;;;;;;5013030;23;20446;-77
2021/12/04 00:21:43;;;;;;;23.17;13.57;;;4.40;99.90;;;;;;5013945;23;20011;-78
2021/12/04 00:23:44;;;;;;;19.10;13.60;;;4.30;99.90;;;;;;5014757;23;20107;-77
2021/12/04 00:25:45;;;;;;;18.63;13.95;;;4.40;99.90;;;;;;5014746;23;20039;-79
2021/12/04 00:27:45;;;;;;;19.80;13.65;;;4.40;99.90;;;;;;5014465;23;20085;-76
2021/12/04 00:29:46;;;;;;;18.92;13.50;;;4.30;99.90;;;;;;5013596;23;20029;-77
2021/12/04 00:31:48;;;;;;;19.60;14.43;;;4.30;99.90;;;;;;5010662;23;20021;-78
2021/12/04 00:33:50;;;;;;;19.17;12.90;;;4.40;99.90;;;;;;5011526;23;20086;-77
2021/12/04 00:35:58;;;;;;;18.67;13.65;;;4.30;99.90;;;;;;5013261;23;20023;-76
2021/12/04 00:49:19;;;;;;;19.83;13.73;;;4.40;99.90;;;;;;5014807;23;20037;-78
2021/12/04 00:51:20;;;;;;;20.30;13.38;;;4.40;99.90;;;;;;5011412;23;20066;-76
2021/12/04 00:53:22;;;;;;;20.67;14.07;;;4.40;99.90;;;;;;5012100;23;20007;-76
2021/12/04 00:55:22;;;;;;;21.05;14.13;;;4.40;99.90;;;;;;5011819;23;20037;-76
2021/12/04 00:57:23;;;;;;;19.83;14.65;;;4.40;99.90;;;;;;5012472;23;20098;-76
2021/12/04 00:59:24;;;;;;;21.67;13.88;;;4.40;99.90;;;;;;5012989;23;20018;-76
2021/12/04 01:01:25;;;;;;;19.13;13.73;;;4.30;99.90;;;;;;5012300;23;20038;-77
2021/12/04 01:03:26;;;;;;;20.92;13.55;;;4.30;99.90;;;;;;5011337;23;20018;-78
2021/12/04 01:05:26;;;;;;;22.40;15.35;;;4.30;99.90;;;;;;5013567;23;20042;-78
2021/12/04 01:07:27;;;;;;;22.27;13.98;;;4.30;99.90;;;;;;5013986;23;20047;-77
2021/12/04 01:09:28;;;;;;;19.10;13.75;;;4.30;99.90;;;;;;5014625;23;20010;-77
2021/12/04 01:11:28;;;;;;;18.60;13.48;;;4.30;99.90;;;;;;5014233;23;20037;-78
2021/12/04 01:13:30;;;;;;;19.25;13.63;;;4.40;99.90;;;;;;5012730;23;20015;-77
2021/12/04 01:15:31;;;;;;;19.58;13.88;;;4.40;99.90;;;;;;5014525;23;20049;-77
2021/12/04 01:17:32;;;;;;;19.73;13.23;;;4.40;99.90;;;;;;5012085;23;20018;-79
2021/12/04 01:19:33;;;;;;;17.02;11.95;;;4.40;99.90;;;;;;5005825;23;20081;-78
2021/12/04 01:21:34;;;;;;;18.83;12.50;;;4.30;99.90;;;;;;5014793;23;20017;-78
2021/12/04 01:23:34;;;;;;;20.33;13.50;;;4.40;99.90;;;;;;5012765;23;20030;-78
2021/12/04 01:25:37;;;;;;;14.88;10.88;;;4.40;99.90;;;;;;5014843;23;20461;-77
2021/12/04 01:27:37;;;;;;;16.30;11.70;;;4.50;99.90;;;;;;5015485;23;20117;-78
2021/12/04 01:29:38;;;;;;;18.80;12.82;;;4.40;99.90;;;;;;5014172;23;20019;-78
2021/12/04 01:31:39;;;;;;;21.05;13.38;;;4.40;99.90;;;;;;5014446;23;20411;-76
2021/12/04 01:33:40;;;;;;;18.30;12.63;;;4.40;99.90;;;;;;5016084;23;20474;-77
2021/12/04 01:35:40;;;;;;;15.45;11.50;;;4.40;99.90;;;;;;5015915;23;20828;-77
2021/12/04 01:37:41;;;;;;;18.85;12.60;;;4.40;99.90;;;;;;5016225;23;20122;-78
2021/12/04 01:39:41;;;;;;;20.23;12.88;;;4.40;99.90;;;;;;5016618;23;20332;-77
2021/12/04 01:41:42;;;;;;;19.70;12.95;;;4.40;99.90;;;;;;5016181;23;20098;-76
2021/12/04 01:43:43;;;;;;;22.10;13.30;;;4.30;99.90;;;;;;5016153;23;20065;-77
2021/12/04 01:45:43;;;;;;;18.08;12.40;;;4.30;99.90;;;;;;5016018;23;20019;-76
2021/12/04 01:47:44;;;;;;;18.60;12.35;;;4.30;99.90;;;;;;5016756;23;20094;-76
2021/12/04 01:49:48;;;;;;;18.95;12.43;;;4.30;99.90;;;;;;5013881;23;20563;-76
2021/12/04 01:51:48;;;;;;;;;;;4.30;99.90;;;;;;5014090;23;20371;-77
2021/12/04 01:53:49;;;;;;;21.73;13.35;;;4.40;99.90;;;;;;5015369;23;19909;-76
2021/12/04 01:55:52;;;;;;;22.05;12.75;;;4.40;99.90;;;;;;5015738;23;20029;-76
2021/12/04 01:57:53;;;;;;;21.48;12.63;;;4.40;99.90;;;;;;5015614;23;20066;-77
2021/12/04 01:59:54;;;;;;;19.98;13.55;;;4.40;99.90;;;;;;5016152;23;20011;-76
2021/12/04 02:01:57;;;;;;;21.23;14.02;;;4.40;99.90;;;;;;5015649;23;20466;-76
2021/12/04 02:03:57;;;;;;;26.13;13.88;;;4.40;99.90;;;;;;5016091;23;20015;-76
2021/12/04 02:05:58;;;;;;;21.75;13.32;;;4.40;99.90;;;;;;5015423;23;20362;-75
2021/12/04 02:07:59;;;;;;;22.38;13.10;;;4.40;99.90;;;;;;5014481;23;20408;-76
2021/12/04 02:10:07;;;;;;;22.33;13.25;;;4.40;99.90;;;;;;5013639;23;20021;-76
2021/12/04 02:12:08;;;;;;;21.45;13.75;;;4.30;99.90;;;;;;5013695;23;20056;-76
2021/12/04 02:14:09;;;;;;;24.27;13.75;;;4.30;99.90;;;;;;5014102;23;20045;-76
2021/12/04 02:16:20;;;;;;;22.25;14.27;;;4.30;99.90;;;;;;5015417;23;20546;-77
2021/12/04 02:18:21;;;;;;;23.55;14.95;;;4.40;99.90;;;;;;5015865;23;20018;-76
2021/12/04 02:20:28;;;;;;;26.90;14.05;;;4.30;99.90;;;;;;5015587;23;20529;-76
2021/12/04 02:22:29;;;;;;;23.95;14.68;;;4.30;99.90;;;;;;5015988;23;20602;-76
2021/12/04 02:24:29;;;;;;;21.80;13.40;;;4.30;99.90;;;;;;5013041;23;20014;-76
2021/12/04 02:26:30;;;;;;;25.08;15.80;;;4.30;99.90;;;;;;5014101;23;20042;-76
2021/12/04 02:28:31;;;;;;;26.73;14.10;;;4.40;99.90;;;;;;5015498;23;20167;-76
2021/12/04 02:30:35;;;;;;;29.48;14.63;;;4.40;99.90;;;;;;5014168;23;20011;-75
2021/12/04 02:32:37;;;;;;;24.10;13.27;;;4.40;99.90;;;;;;5013578;23;20019;-76
2021/12/04 02:34:38;;;;;;;29.23;15.38;;;4.40;99.90;;;;;;5015937;23;20019;-77
2021/12/04 02:36:40;;;;;;;27.02;15.00;;;4.40;99.90;;;;;;5013164;23;20015;-76
2021/12/04 02:38:41;;;;;;;25.20;15.00;;;4.40;99.90;;;;;;5016258;23;20335;-76
2021/12/04 02:40:43;;;;;;;25.80;13.93;;;4.50;99.90;;;;;;5013675;23;20043;-76
2021/12/04 02:42:45;;;;;;;23.98;13.70;;;4.50;99.90;;;;;;5015765;23;20033;-77
2021/12/04 02:44:45;;;;;;;28.45;15.90;;;4.50;99.90;;;;;;5013489;23;20459;-76
2021/12/04 02:46:46;;;;;;;23.15;14.35;;;4.50;99.90;;;;;;5013716;23;20015;-76
2021/12/04 02:48:47;;;;;;;31.00;16.65;;;4.50;99.90;;;;;;5015435;23;20026;-76
2021/12/04 02:50:48;;;;;;;31.90;16.23;;;4.50;99.90;;;;;;5014040;23;20015;-77
2021/12/04 02:52:48;;;;;;;28.48;16.30;;;4.40;99.90;;;;;;5014667;23;20808;-77
2021/12/04 02:54:51;;;;;;;26.63;15.40;;;4.40;99.90;;;;;;5015706;23;20290;-76
2021/12/04 02:56:52;;;;;;;35.42;16.38;;;4.50;99.90;;;;;;5013095;23;20018;-76
2021/12/04 02:58:56;;;;;;;30.63;16.08;;;4.50;99.90;;;;;;5014057;23;20010;-77
2021/12/04 03:00:57;;;;;;;28.38;15.73;;;4.40;99.90;;;;;;5013091;23;20019;-77
2021/12/04 03:02:57;;;;;;;35.20;17.75;;;4.50;99.90;;;;;;5012063;23;20429;-77
2021/12/04 03:05:02;;;;;;;34.83;16.77;;;4.50;99.90;;;;;;5012268;23;20098;-77
2021/12/04 03:07:02;;;;;;;37.67;17.30;;;4.50;99.90;;;;;;5011122;23;20594;-77
2021/12/04 03:09:04;;;;;;;34.47;17.73;;;4.50;99.90;;;;;;5013218;23;20019;-77
2021/12/04 03:11:05;;;;;;;34.05;16.30;;;4.50;99.90;;;;;;5011695;23;20462;-76
2021/12/04 03:13:08;;;;;;;35.30;17.83;;;4.50;99.90;;;;;;5012203;23;20101;-76
2021/12/04 03:15:09;;;;;;;41.63;17.85;;;4.50;99.90;;;;;;5011813;23;20015;-77
2021/12/04 03:17:10;;;;;;;37.13;17.42;;;4.50;99.90;;;;;;5015317;23;20475;-77
2021/12/04 03:19:11;;;;;;;44.47;18.80;;;4.40;99.90;;;;;;5013312;23;20011;-76
2021/12/04 03:21:11;;;;;;;40.00;18.15;;;4.50;99.90;;;;;;5004969;23;20467;-76
2021/12/04 03:23:19;;;;;;;42.58;19.00;;;4.40;99.90;;;;;;5014988;23;20725;-77
2021/12/04 03:25:20;;;;;;;44.20;20.10;;;4.40;99.90;;;;;;5013502;23;20026;-76
2021/12/04 03:27:21;;;;;;;49.08;19.45;;;4.40;99.90;;;;;;5013677;23;20023;-77
2021/12/04 03:29:25;;;;;;;46.20;19.08;;;4.50;99.90;;;;;;5013648;23;20019;-76
2021/12/04 03:40:37;;;;;;;49.20;18.40;;;4.50;99.90;;;;;;5014996;23;20081;-77
2021/12/04 03:42:40;;;;;;;51.65;19.55;;;4.50;99.90;;;;;;5012076;23;20030;-77
2021/12/04 03:44:41;;;;;;;54.65;20.17;;;4.40;99.90;;;;;;5015453;23;20025;-77
2021/12/04 03:46:44;;;;;;;55.15;22.00;;;4.50;99.90;;;;;;5015217;23;20511;-77
2021/12/04 03:50:45;;;;;;;64.43;19.77;;;4.40;99.90;;;;;;5015969;23;19954;-77
2021/12/04 03:52:46;;;;;;;58.83;21.00;;;4.40;99.90;;;;;;5015005;23;20075;-77
2021/12/04 03:54:46;;;;;;;67.85;21.33;;;4.50;99.90;;;;;;5013181;23;20023;-77
2021/12/04 03:56:47;;;;;;;72.30;23.25;;;4.50;99.90;;;;;;5015138;23;20018;-77
2021/12/04 03:58:48;;;;;;;68.78;23.60;;;4.50;99.90;;;;;;5014678;23;20032;-76
2021/12/04 04:00:49;;;;;;;64.40;22.55;;;4.50;99.90;;;;;;5015209;23;20011;-76
2021/12/04 04:02:50;;;;;;;77.60;23.05;;;4.40;99.90;;;;;;5015285;23;20482;-77
2021/12/04 04:04:51;;;;;;;86.47;25.05;;;4.40;99.90;;;;;;5014898;23;20099;-77
2021/12/04 04:06:51;;;;;;;74.97;22.50;;;4.40;99.90;;;;;;5014224;23;20089;-77
2021/12/04 04:08:52;;;;;;;98.60;25.75;;;4.40;99.90;;;;;;5012546;23;20023;-77
2021/12/04 04:10:54;;;;;;;110.97;29.88;;;4.40;99.90;;;;;;5014625;23;20055;-76
2021/12/04 04:12:55;;;;;;;100.90;27.33;;;4.40;99.90;;;;;;5014725;23;20018;-77
2021/12/04 04:14:55;;;;;;;89.28;25.00;;;4.40;99.90;;;;;;5015007;23;20794;-76
2021/12/04 04:16:57;;;;;;;95.07;26.35;;;4.40;99.90;;;;;;5014173;23;20046;-77
2021/12/04 04:18:57;;;;;;;106.45;27.02;;;4.50;99.90;;;;;;5013232;23;20010;-78
2021/12/04 04:20:59;;;;;;;91.82;25.13;;;4.50;99.90;;;;;;5013984;23;20011;-77
2021/12/04 04:22:59;;;;;;;121.07;27.13;;;4.50;99.90;;;;;;5014465;23;20022;-77
2021/12/04 04:25:00;;;;;;;85.75;24.70;;;4.50;99.90;;;;;;5011671;23;20092;-77
2021/12/04 04:27:01;;;;;;;127.70;27.92;;;4.50;99.90;;;;;;5012928;23;20026;-77
2021/12/04 04:29:03;;;;;;;107.50;27.35;;;4.50;99.90;;;;;;5014540;23;20097;-78
2021/12/04 04:31:05;;;;;;;110.70;28.15;;;4.50;99.90;;;;;;5015455;23;20015;-77
2021/12/04 04:33:06;;;;;;;96.72;28.73;;;4.50;99.90;;;;;;5012891;23;20015;-77
2021/12/04 04:35:27;;;;;;;120.55;29.83;;;4.50;99.90;;;;;;5014573;23;20029;-77
2021/12/04 04:37:42;;;;;;;130.65;28.95;;;4.50;99.90;;;;;;5012420;23;20011;-77
2021/12/04 05:00:55;;;;;;;151.32;32.42;;;4.50;99.90;;;;;;5016297;23;20420;-77
2021/12/04 05:12:27;;;;;;;101.32;26.80;;;4.50;99.90;;;;;;5016287;23;20069;-77
2021/12/04 05:14:28;;;;;;;104.60;26.30;;;4.60;99.90;;;;;;5014413;23;20348;-77
2021/12/04 05:16:40;;;;;;;149.02;30.67;;;4.60;99.90;;;;;;5014327;23;20017;-77
2021/12/04 05:18:51;;;;;;;127.97;30.00;;;4.60;99.90;;;;;;5013489;23;20065;-77
2021/12/04 05:21:15;;;;;;;113.35;28.17;;;4.50;99.90;;;;;;5016274;23;20022;-77
2021/12/04 05:23:15;;;;;;;136.63;30.08;;;4.50;99.90;;;;;;5004600;23;20094;-77
2021/12/04 05:25:16;;;;;;;136.63;31.48;;;4.50;99.90;;;;;;5014740;23;20021;-77
2021/12/04 05:27:17;;;;;;;99.93;25.05;;;4.50;99.90;;;;;;5015542;23;20094;-77
2021/12/04 05:29:17;;;;;;;109.90;29.08;;;4.50;99.90;;;;;;5016212;23;20019;-77
2021/12/04 05:31:18;;;;;;;154.55;34.25;;;4.60;99.90;;;;;;5015856;23;20079;-77
2021/12/04 05:33:19;;;;;;;123.38;29.23;;;4.50;99.90;;;;;;5014800;23;20022;-77
2021/12/04 05:35:21;;;;;;;165.85;33.58;;;4.50;99.90;;;;;;5016127;23;20030;-77
2021/12/04 05:37:21;;;;;;;125.45;28.88;;;4.50;99.90;;;;;;5015763;23;20091;-77
2021/12/04 05:39:22;;;;;;;113.60;27.92;;;4.60;99.90;;;;;;5015830;23;20021;-77
2021/12/04 05:41:24;;;;;;;118.85;30.75;;;4.50;99.90;;;;;;5016618;23;20070;-77
2021/12/04 05:43:25;;;;;;;154.35;32.25;;;4.50;99.90;;;;;;5013798;23;20023;-77
2021/12/04 05:45:27;;;;;;;110.43;27.55;;;4.50;99.90;;;;;;5013987;23;20393;-77
2021/12/04 05:47:38;;;;;;;117.00;28.27;;;4.60;99.90;;;;;;5014025;23;20014;-77
2021/12/04 05:49:57;;;;;;;133.75;30.25;;;4.60;99.90;;;;;;5015969;23;20609;-77
2021/12/04 05:52:52;;;;;;;146.43;32.53;;;4.60;99.90;;;;;;5014060;23;20017;-78
2021/12/04 05:56:41;;;;;;;106.72;28.80;;;4.50;99.90;;;;;;5017653;23;20050;-77
2021/12/04 05:58:42;;;;;;;126.85;29.52;;;4.50;99.90;;;;;;5012852;23;20078;-77
2021/12/04 06:00:43;;;;;;;130.23;31.63;;;4.50;99.90;;;;;;5014130;23;20086;-76
2021/12/04 06:02:43;;;;;;;140.10;32.72;;;4.60;99.90;;;;;;5013532;23;20019;-77
2021/12/04 06:04:44;;;;;;;102.88;28.50;;;4.60;99.90;;;;;;5015348;23;20010;-77
2021/12/04 06:06:45;;;;;;;122.68;29.88;;;4.60;99.90;;;;;;5012599;23;20010;-77
2021/12/04 06:08:46;;;;;;;118.45;28.52;;;4.60;99.90;;;;;;5014895;23;20021;-77
2021/12/04 06:10:48;;;;;;;108.25;28.17;;;4.50;99.90;;;;;;5015423;23;20034;-76
2021/12/04 06:12:49;;;;;;;123.78;31.52;;;4.50;99.90;;;;;;5015096;23;20320;-76
2021/12/04 06:14:49;;;;;;;106.53;29.13;;;4.50;99.90;;;;;;5013138;23;20042;-77
2021/12/04 06:16:50;;;;;;;112.68;29.20;;;4.50;99.90;;;;;;5013355;23;20372;-77
2021/12/04 06:18:54;;;;;;;113.88;29.60;;;4.50;99.90;;;;;;5015177;23;20011;-77
2021/12/04 06:23:14;;;;;;;114.22;29.15;;;4.50;99.90;;;;;;5014608;23;20066;-78
2021/12/04 06:25:20;;;;;;;141.10;31.85;;;4.50;99.90;;;;;;5015124;23;20023;-77
2021/12/04 06:27:20;;;;;;;109.18;29.92;;;4.50;99.90;;;;;;5014324;23;20099;-77
2021/12/04 06:29:22;;;;;;;106.28;29.75;;;4.50;99.90;;;;;;5013518;23;20026;-77
2021/12/04 06:31:22;;;;;;;114.80;29.67;;;4.50;99.90;;;;;;5015832;23;20025;-77
2021/12/04 06:33:23;;;;;;;112.63;30.27;;;4.50;99.90;;;;;;5014912;23;20018;-78
2021/12/04 06:35:24;;;;;;;131.23;32.03;;;4.50;99.90;;;;;;5013500;23;20079;-77
2021/12/04 06:37:25;;;;;;;128.45;29.90;;;4.50;99.90;;;;;;5011835;23;20019;-77
2021/12/04 06:39:25;;;;;;;115.20;30.35;;;4.50;99.90;;;;;;5013668;23;20748;-77
2021/12/04 06:41:26;;;;;;;161.55;34.80;;;4.50;99.90;;;;;;5013387;23;20019;-77
2021/12/04 06:43:27;;;;;;;183.20;35.67;;;4.50;99.90;;;;;;5015946;23;20062;-77
2021/12/04 06:45:30;;;;;;;155.70;35.03;;;4.50;99.90;;;;;;5014960;23;20525;-76
2021/12/04 06:47:33;;;;;;;118.70;30.60;;;4.50;99.90;;;;;;5015861;23;20038;-77
2021/12/04 06:49:39;;;;;;;121.57;32.83;;;4.50;99.90;;;;;;5015515;23;20019;-77
2021/12/04 06:51:43;;;;;;;138.85;33.78;;;4.50;99.90;;;;;;5015380;23;20023;-78
2021/12/04 06:53:49;;;;;;;138.75;33.00;;;4.40;99.90;;;;;;5015212;23;20646;-77
2021/12/04 06:55:54;;;;;;;127.78;32.53;;;4.40;99.90;;;;;;5014091;23;20046;-77
2021/12/04 06:57:55;;;;;;;121.97;32.90;;;4.50;99.90;;;;;;5014751;23;20014;-77
2021/12/04 06:59:57;;;;;;;130.60;32.90;;;4.50;99.90;;;;;;5014208;23;20513;-77
2021/12/04 07:01:57;;;;;;;145.68;34.95;;;4.40;99.90;;;;;;5012515;23;20023;-77
2021/12/04 07:03:58;;;;;;;135.85;31.98;;;4.50;99.90;;;;;;5014599;23;20506;-77
2021/12/04 07:05:59;;;;;;;95.28;28.88;;;4.40;99.90;;;;;;5012854;23;20039;-76
2021/12/04 07:08:00;;;;;;;115.35;32.15;;;4.50;99.90;;;;;;5013713;23;20019;-78
2021/12/04 07:10:00;;;;;;;118.35;33.47;;;4.50;99.90;;;;;;5012361;23;20019;-77
2021/12/04 07:12:02;;;;;;;105.30;32.63;;;4.50;99.90;;;;;;5013247;23;20046;-78
2021/12/04 07:14:02;;;;;;;123.10;34.95;;;4.50;99.90;;;;;;5014196;23;20033;-77
2021/12/04 07:16:05;;;;;;;95.43;30.45;;;4.40;99.90;;;;;;5013734;23;20363;-77
2021/12/04 07:18:06;;;;;;;107.65;33.83;;;4.50;99.90;;;;;;5015228;23;20105;-78
2021/12/04 07:20:08;;;;;;;137.70;34.38;;;4.50;99.90;;;;;;5014339;23;20067;-76
2021/12/04 07:22:10;;;;;;;107.05;33.20;;;4.50;99.90;;;;;;5016040;23;20025;-76
2021/12/04 07:24:11;;;;;;;110.40;34.72;;;4.50;99.90;;;;;;5008163;23;20030;-77
2021/12/04 07:26:12;;;;;;;98.50;34.47;;;4.50;99.90;;;;;;5011712;23;20379;-77
2021/12/04 07:28:13;;;;;;;119.30;34.17;;;4.40;99.90;;;;;;5014718;23;20026;-77
2021/12/04 07:30:13;;;;;;;102.57;34.15;;;4.50;99.90;;;;;;5015417;23;20019;-77
2021/12/04 07:32:14;;;;;;;113.97;35.88;;;4.50;99.90;;;;;;5012839;23;20478;-78
2021/12/04 07:34:15;;;;;;;120.88;33.17;;;4.50;99.90;;;;;;5013638;23;20090;-78
2021/12/04 07:36:15;;;;;;;109.55;33.10;;;4.50;99.90;;;;;;5012256;23;20022;-77
2021/12/04 07:38:16;;;;;;;105.43;35.53;;;4.50;99.90;;;;;;5013832;23;20027;-76
2021/12/04 07:40:17;;;;;;;115.32;32.22;;;4.50;99.90;;;;;;5004003;23;20026;-76
2021/12/04 07:42:18;;;;;;;108.00;32.72;;;4.60;99.90;;;;;;5013071;23;20070;-77
2021/12/04 07:44:18;;;;;;;101.20;34.30;;;4.60;99.90;;;;;;5014588;23;20530;-77
2021/12/04 07:46:20;;;;;;;112.03;35.08;;;4.60;99.90;;;;;;5012051;23;20410;-77
2021/12/04 07:48:21;;;;;;;134.20;35.78;;;4.60;99.90;;;;;;5013506;23;20329;-77
2021/12/04 07:50:22;;;;;;;112.85;33.03;;;4.60;99.90;;;;;;5012571;23;20026;-77
2021/12/04 07:52:23;;;;;;;113.65;34.10;;;4.60;99.90;;;;;;5012534;23;20107;-78
2021/12/04 07:54:23;;;;;;;118.55;33.05;;;4.60;99.90;;;;;;5013688;23;20023;-76
2021/12/04 07:56:24;;;;;;;121.22;35.85;;;4.60;99.90;;;;;;5011757;23;20029;-76
2021/12/04 07:58:25;;;;;;;118.10;37.97;;;4.60;99.90;;;;;;5011776;23;20019;-77
2021/12/04 08:00:27;;;;;;;123.78;35.47;;;4.60;99.90;;;;;;5013667;23;20014;-77
2021/12/04 08:02:27;;;;;;;129.38;37.35;;;4.60;99.90;;;;;;5013552;23;20014;-77
2021/12/04 08:04:28;;;;;;;148.68;36.88;;;4.60;99.90;;;;;;5012240;23;20042;-78
2021/12/04 08:06:32;;;;;;;155.45;39.70;;;4.60;99.90;;;;;;5011418;23;20042;-77
2021/12/04 08:08:33;;;;;;;143.30;39.75;;;4.60;99.90;;;;;;5012147;23;20019;-78
2021/12/04 08:10:34;;;;;;;129.75;34.70;;;4.60;99.90;;;;;;5014274;23;20022;-77
2021/12/04 08:12:36;;;;;;;150.63;37.03;;;4.60;99.90;;;;;;5014611;23;20491;-77
2021/12/04 08:14:38;;;;;;;151.98;36.60;;;4.60;99.90;;;;;;5014277;23;20018;-77
2021/12/04 08:16:38;;;;;;;136.02;35.92;;;4.60;99.90;;;;;;5013662;23;20007;-77
2021/12/04 08:18:39;;;;;;;124.05;35.15;;;4.60;99.90;;;;;;5012561;23;20062;-77
2021/12/04 08:20:40;;;;;;;109.90;30.58;;;4.60;99.90;;;;;;5014990;23;20010;-77
2021/12/04 08:22:42;;;;;;;103.70;29.75;;;4.70;99.90;;;;;;5013010;23;20042;-77
2021/12/04 08:24:44;;;;;;;116.82;32.25;;;4.60;99.90;;;;;;5014277;23;20034;-77
2021/12/04 08:26:46;;;;;;;118.30;31.93;;;4.60;99.90;;;;;;5012442;23;20011;-77
2021/12/04 08:28:48;;;;;;;122.88;34.72;;;4.60;99.90;;;;;;5013057;23;20102;-77
2021/12/04 08:30:49;;;;;;;117.93;31.10;;;4.60;99.90;;;;;;5013215;23;20106;-77
2021/12/04 08:32:53;;;;;;;97.28;29.40;;;4.60;99.90;;;;;;5014943;23;20097;-76
2021/12/04 08:34:54;;;;;;;113.10;30.88;;;4.70;99.90;;;;;;5014996;23;20018;-77
2021/12/04 08:36:55;;;;;;;108.18;31.65;;;4.70;99.90;;;;;;5005543;23;20015;-77
2021/12/04 08:38:55;;;;;;;94.43;29.98;;;4.60;99.90;;;;;;5013548;23;20015;-76
2021/12/04 08:40:56;;;;;;;108.93;33.20;;;4.60;99.90;;;;;;5014682;23;20095;-77
2021/12/04 08:42:57;;;;;;;103.68;28.23;;;4.60;99.90;;;;;;5013028;23;20031;-78
2021/12/04 08:44:59;;;;;;;109.00;29.17;;;4.60;99.90;;;;;;5012541;23;20027;-76
2021/12/04 08:47:00;;;;;;;93.88;27.30;;;4.70;99.90;;;;;;5013657;23;20026;-77
2021/12/04 08:49:01;;;;;;;105.85;26.83;;;4.60;99.90;;;;;;5013035;23;20070;-76
2021/12/04 08:51:04;;;;;;;92.13;27.77;;;4.60;99.90;;;;;;5013399;23;20073;-77
2021/12/04 08:53:06;;;;;;;107.45;28.88;;;4.60;99.90;;;;;;5014605;23;20778;-76
2021/12/04 08:55:08;;;;;;;96.20;28.80;;;4.60;99.90;;;;;;5015467;23;20042;-77
2021/12/04 08:57:09;;;;;;;86.28;27.38;;;4.60;99.90;;;;;;5014693;23;20011;-76
2021/12/04 08:59:10;;;;;;;86.78;26.45;;;4.70;99.90;;;;;;5015037;23;20037;-76
2021/12/04 09:01:21;;;;;;;111.03;28.20;;;4.70;99.90;;;;;;5014604;23;20094;-76
2021/12/04 09:03:26;;;;;;;114.85;29.15;;;4.70;99.90;;;;;;5014570;23;20078;-77
2021/12/04 09:05:28;;;;;;;105.88;27.02;;;4.70;99.90;;;;;;5014370;23;20014;-77
2021/12/04 09:07:29;;;;;;;97.55;27.90;;;4.80;99.90;;;;;;5012647;23;20014;-78
2021/12/04 09:09:30;;;;;;;86.85;25.77;;;4.80;99.90;;;;;;5011800;23;20491;-78
2021/12/04 09:11:36;;;;;;;97.10;26.23;;;4.90;99.90;;;;;;5010842;23;20056;-78
2021/12/04 09:13:37;;;;;;;93.68;25.88;;;5.00;99.90;;;;;;5004530;23;20566;-78
2021/12/04 09:15:39;;;;;;;90.32;26.63;;;5.00;99.90;;;;;;5004061;23;20634;-78
2021/12/04 09:17:39;;;;;;;83.47;26.40;;;5.00;99.90;;;;;;5008311;23;20014;-78
2021/12/04 09:19:40;;;;;;;89.25;26.98;;;4.90;99.90;;;;;;5003844;23;20022;-78
2021/12/04 09:21:41;;;;;;;76.70;25.45;;;5.00;99.90;;;;;;5005812;23;20015;-76
2021/12/04 09:23:49;;;;;;;72.93;23.50;;;5.10;99.90;;;;;;5006093;23;20047;-76
2021/12/04 09:25:56;;;;;;;72.78;23.27;;;5.10;99.90;;;;;;5002033;23;20019;-77
2021/12/04 09:28:14;;;;;;;84.30;24.33;;;5.10;99.90;;;;;;5004956;23;20019;-77
2021/12/04 09:34:49;;;;;;;67.72;22.10;;;5.10;99.90;;;;;;5017835;23;20125;-77
2021/12/04 09:40:14;;;;;;;80.78;23.88;;;5.10;99.90;;;;;;5015702;23;20053;-77
2021/12/04 10:03:03;;;;;;;72.03;24.02;;;5.10;99.90;;;;;;5013680;23;20011;-77
2021/12/04 10:14:20;;;;;;;79.30;26.02;;;5.10;99.90;;;;;;5016739;23;20085;-78
2021/12/04 10:23:31;;;;;;;74.28;25.45;;;5.20;99.90;;;;;;5015120;23;20081;-78
2021/12/04 10:34:33;;;;;;;70.93;24.48;;;5.30;99.90;;;;;;5018002;23;20523;-77
2021/12/04 10:36:38;;;;;;;53.70;21.65;;;5.30;99.90;;;;;;5015710;23;20026;-77
2021/12/04 10:38:44;;;;;;;61.38;22.98;;;5.40;99.90;;;;;;5015538;23;20015;-77
2021/12/04 10:40:48;;;;;;;47.15;18.65;;;5.40;99.90;;;;;;5013865;23;20459;-78
2021/12/04 10:42:54;;;;;;;70.30;21.70;;;5.40;99.90;;;;;;5013699;23;20529;-77
2021/12/04 10:44:56;;;;;;;48.38;21.00;;;5.50;99.90;;;;;;5007480;23;20101;-78
2021/12/04 10:46:59;;;;;;;58.97;22.63;;;5.50;99.90;;;;;;5012930;23;20023;-77
2021/12/04 10:49:09;;;;;;;66.38;22.55;;;5.50;99.90;;;;;;5013586;23;20034;-77
2021/12/04 10:53:34;;;;;;;54.63;21.65;;;5.50;99.90;;;;;;5014804;23;20097;-77
2021/12/04 11:02:39;;;;;;;57.72;21.55;;;5.70;99.90;;;;;;5014946;23;20023;-77
2021/12/04 11:04:55;;;;;;;51.90;22.23;;;5.70;99.90;;;;;;5014342;23;20096;-77
2021/12/04 11:39:08;;;;;;;58.15;22.55;;;5.50;99.90;;;;;;5015176;23;20021;-77
2021/12/04 11:43:49;;;;;;;57.63;24.33;;;5.50;99.90;;;;;;5014621;23;20063;-77
2021/12/04 11:48:05;;;;;;;51.42;21.20;;;5.40;99.90;;;;;;5014830;23;20018;-77
2021/12/04 11:50:17;;;;;;;58.25;21.08;;;5.40;99.90;;;;;;5014418;23;20015;-76
2021/12/04 11:52:20;;;;;;;56.75;20.75;;;5.40;99.90;;;;;;5013441;23;20019;-77
2021/12/04 11:54:21;;;;;;;51.78;20.75;;;5.50;99.90;;;;;;5014485;23;20090;-77
2021/12/04 11:56:27;;;;;;;57.60;21.33;;;5.50;99.90;;;;;;5012860;23;20110;-77
2021/12/04 11:58:40;;;;;;;48.40;21.13;;;5.40;99.90;;;;;;5015166;23;20141;-77
2021/12/04 12:00:41;;;;;;;50.15;22.02;;;5.40;99.90;;;;;;5013399;23;20437;-78
2021/12/04 12:02:42;;;;;;;45.83;20.73;;;5.50;99.90;;;;;;5015205;23;20010;-77
2021/12/04 12:04:50;;;;;;;51.95;20.60;;;5.50;99.90;;;;;;5012675;23;20097;-77
2021/12/04 12:06:52;;;;;;;53.28;21.92;;;5.50;99.90;;;;;;5014783;23;20018;-77
2021/12/04 12:09:08;;;;;;;45.72;21.83;;;5.60;99.90;;;;;;5012463;23;20015;-78
2021/12/04 12:11:25;;;;;;;40.60;20.23;;;5.60;99.90;;;;;;5011838;23;20015;-78
2021/12/04 12:13:34;;;;;;;45.63;18.85;;;5.60;99.90;;;;;;5012500;23;20015;-77
2021/12/04 12:15:36;;;;;;;39.40;19.48;;;5.70;99.90;;;;;;5013697;23;20019;-77
2021/12/04 12:17:39;;;;;;;44.58;20.15;;;5.60;99.90;;;;;;5013195;23;20363;-78
2021/12/04 12:19:48;;;;;;;38.67;18.58;;;5.70;99.90;;;;;;5014356;23;20686;-77
2021/12/04 12:21:58;;;;;;;45.13;21.73;;;5.70;99.90;;;;;;5014776;23;20121;-76
2021/12/04 12:26:34;;;;;;;33.58;18.85;;;5.70;99.90;;;;;;5013048;23;20022;-77
2021/12/04 12:37:25;;;;;;;36.28;19.05;;;5.70;99.90;;;;;;5015530;23;20015;-77
2021/12/04 12:39:25;;;;;;;30.02;16.77;;;5.80;99.90;;;;;;5014362;23;20039;-77
2021/12/04 12:41:42;;;;;;;37.03;22.23;;;5.80;99.90;;;;;;5015061;23;20351;-77
2021/12/04 12:43:50;;;;;;;50.22;25.65;;;5.80;99.90;;;;;;5012618;23;20038;-77
2021/12/04 12:45:56;;;;;;;41.03;22.27;;;5.80;99.90;;;;;;5014177;23;20030;-77
2021/12/04 12:48:05;;;;;;;36.20;21.33;;;5.80;99.90;;;;;;5015497;23;20023;-76
2021/12/04 12:50:06;;;;;;;55.22;24.42;;;5.80;99.90;;;;;;5014657;23;20015;-76
2021/12/04 12:52:26;;;;;;;47.90;23.05;;;5.80;99.90;;;;;;5013535;23;20025;-77
2021/12/04 12:54:37;;;;;;;46.60;23.38;;;5.70;99.90;;;;;;5012342;23;20090;-77
2021/12/04 12:56:43;;;;;;;43.38;23.83;;;5.70;99.90;;;;;;5011877;23;20027;-77
2021/12/04 13:12:39;;;;;;;37.63;22.95;;;5.80;99.90;;;;;;5016279;23;20108;-77
2021/12/04 13:14:40;;;;;;;37.97;20.63;;;5.80;99.90;;;;;;5015584;23;20126;-77
2021/12/04 13:16:47;;;;;;;40.17;22.88;;;5.80;99.90;;;;;;5016429;23;20363;-77
2021/12/04 13:18:56;;;;;;;44.78;24.23;;;5.80;99.90;;;;;;5014418;23;20324;-77
2021/12/04 13:21:15;;;;;;;49.00;30.05;;;5.70;99.90;;;;;;5016008;23;20023;-77
2021/12/04 13:23:19;;;;;;;48.72;25.85;;;5.70;99.90;;;;;;5013581;23;20022;-77
2021/12/04 13:25:19;;;;;;;44.47;26.17;;;5.70;99.90;;;;;;5014974;23;20593;-78
2021/12/04 13:29:27;;;;;;;37.35;21.33;;;5.70;99.90;;;;;;5015908;23;20015;-77
2021/12/04 13:31:28;;;;;;;36.38;23.55;;;5.70;99.90;;;;;;5014022;23;20346;-77
2021/12/04 13:33:32;;;;;;;45.67;25.20;;;5.80;99.90;;;;;;5014468;23;20018;-77